sensor_id;sensor_type;location;lat;lon;timestamp;pressure;altitude;pressure_sealevel;temperature;humidity
64862;BME280;62652;42.274;-71.436;2023-02-01T00:00:01;101680.0;;;-1.7777777777777775;45.3
64862;BME280;62652;42.274;-71.436;2023-02-01T00:01:05;101680.0;;;-1.7777777777777775;46.0
64862;BME280;62652;42.274;-71.436;2023-02-01T00:02:01;101680.0;;;-1.7777777777777775;45.3
64862;BME280;62652;42.274;-71.436;2023-02-01T00:03:01;101680.0;;;-1.8888888888888882;45.6
64862;BME280;62652;42.274;-71.436;2023-02-01T00:04:01;101690.0;;;-1.8888888888888882;45.2
64862;BME280;62652;42.274;-71.436;2023-02-01T00:05:00;101690.0;;;-1.8888888888888882;45.9
64862;BME280;62652;42.274;-71.436;2023-02-01T00:06:01;101700.0;;;-2.000000000000001;45.6
64862;BME280;62652;42.274;-71.436;2023-02-01T00:07:01;101710.0;;;-2.000000000000001;45.7
64862;BME280;62652;42.274;-71.436;2023-02-01T00:08:00;101710.0;;;-2.000000000000001;45.5
64862;BME280;62652;42.274;-71.436;2023-02-01T00:09:01;101710.0;;;-2.000000000000001;46.4
64862;BME280;62652;42.274;-71.436;2023-02-01T00:10:01;101720.0;;;-2.000000000000001;46.2
64862;BME280;62652;42.274;-71.436;2023-02-01T00:11:02;101720.0;;;-2.000000000000001;46.5
64862;BME280;62652;42.274;-71.436;2023-02-01T00:12:01;101730.0;;;-2.1111111111111116;47.4
64862;BME280;62652;42.274;-71.436;2023-02-01T00:13:00;101740.0;;;-2.1111111111111116;46.8
64862;BME280;62652;42.274;-71.436;2023-02-01T00:14:01;101740.0;;;-2.000000000000001;46.9
64862;BME280;62652;42.274;-71.436;2023-02-01T00:15:01;101750.0;;;-2.000000000000001;46.8
64862;BME280;62652;42.274;-71.436;2023-02-01T00:16:04;101750.0;;;-2.000000000000001;47.1
64862;BME280;62652;42.274;-71.436;2023-02-01T00:17:00;101750.0;;;-1.8888888888888882;46.8
64862;BME280;62652;42.274;-71.436;2023-02-01T00:18:01;101740.0;;;-2.000000000000001;47.5
64862;BME280;62652;42.274;-71.436;2023-02-01T00:19:03;101750.0;;;-2.1111111111111116;48.6
64862;BME280;62652;42.274;-71.436;2023-02-01T00:20:01;101750.0;;;-2.000000000000001;47.8
64862;BME280;62652;42.274;-71.436;2023-02-01T00:21:01;101740.0;;;-2.1111111111111116;48.2
64862;BME280;62652;42.274;-71.436;2023-02-01T00:22:00;101740.0;;;-2.1111111111111116;47.5
64862;BME280;62652;42.274;-71.436;2023-02-01T00:23:00;101730.0;;;-2.2222222222222223;47.6
64862;BME280;62652;42.274;-71.436;2023-02-01T00:24:00;101730.0;;;-2.2222222222222223;47.6
64862;BME280;62652;42.274;-71.436;2023-02-01T00:25:00;101740.0;;;-2.2222222222222223;48.2
64862;BME280;62652;42.274;-71.436;2023-02-01T00:26:01;101730.0;;;-2.2222222222222223;47.5
64862;BME280;62652;42.274;-71.436;2023-02-01T00:27:01;101730.0;;;-2.1111111111111116;47.2
64862;BME280;62652;42.274;-71.436;2023-02-01T00:28:01;101730.0;;;-2.2222222222222223;47.4
64862;BME280;62652;42.274;-71.436;2023-02-01T00:29:03;101730.0;;;-2.2222222222222223;47.1
64862;BME280;62652;42.274;-71.436;2023-02-01T00:30:01;101740.0;;;-2.2222222222222223;46.5
64862;BME280;62652;42.274;-71.436;2023-02-01T00:31:02;101740.0;;;-2.2222222222222223;46.3
64862;BME280;62652;42.274;-71.436;2023-02-01T00:32:01;101740.0;;;-2.2222222222222223;46.5
64862;BME280;62652;42.274;-71.436;2023-02-01T00:33:01;101740.0;;;-2.2222222222222223;46.5
64862;BME280;62652;42.274;-71.436;2023-02-01T00:34:00;101740.0;;;-2.2222222222222223;46.3
64862;BME280;62652;42.274;-71.436;2023-02-01T00:35:00;101740.0;;;-2.2222222222222223;45.6
64862;BME280;62652;42.274;-71.436;2023-02-01T00:36:02;101740.0;;;-2.2222222222222223;46.2
64862;BME280;62652;42.274;-71.436;2023-02-01T00:37:00;101740.0;;;-2.2222222222222223;45.9
64862;BME280;62652;42.274;-71.436;2023-02-01T00:38:01;101740.0;;;-2.2222222222222223;46.0
64862;BME280;62652;42.274;-71.436;2023-02-01T00:39:01;101740.0;;;-2.2777777777777786;46.0
64862;BME280;62652;42.274;-71.436;2023-02-01T00:40:00;101740.0;;;-2.2777777777777786;46.1
64862;BME280;62652;42.274;-71.436;2023-02-01T00:41:03;101740.0;;;-2.2777777777777786;46.5
64862;BME280;62652;42.274;-71.436;2023-02-01T00:42:01;101740.0;;;-2.2777777777777786;46.7
64862;BME280;62652;42.274;-71.436;2023-02-01T00:43:00;101740.0;;;-2.2777777777777786;46.4
64862;BME280;62652;42.274;-71.436;2023-02-01T00:44:01;101740.0;;;-2.2777777777777786;46.5
64862;BME280;62652;42.274;-71.436;2023-02-01T00:45:00;101740.0;;;-2.2777777777777786;47.0
64862;BME280;62652;42.274;-71.436;2023-02-01T00:46:01;101730.0;;;-2.3888888888888893;47.5
64862;BME280;62652;42.274;-71.436;2023-02-01T00:47:01;101740.0;;;-2.3888888888888893;48.0
64862;BME280;62652;42.274;-71.436;2023-02-01T00:48:00;101730.0;;;-2.2777777777777786;47.5
64862;BME280;62652;42.274;-71.436;2023-02-01T00:49:01;101730.0;;;-2.3888888888888893;47.6
64862;BME280;62652;42.274;-71.436;2023-02-01T00:50:00;101730.0;;;-2.3888888888888893;47.4
64862;BME280;62652;42.274;-71.436;2023-02-01T00:51:02;101730.0;;;-2.3888888888888893;47.8
64862;BME280;62652;42.274;-71.436;2023-02-01T00:52:01;101730.0;;;-2.3888888888888893;48.8
64862;BME280;62652;42.274;-71.436;2023-02-01T00:53:00;101740.0;;;-2.3888888888888893;48.7
64862;BME280;62652;42.274;-71.436;2023-02-01T00:54:01;101730.0;;;-2.3888888888888893;48.1
64862;BME280;62652;42.274;-71.436;2023-02-01T00:55:00;101740.0;;;-2.2777777777777786;48.5
64862;BME280;62652;42.274;-71.436;2023-02-01T00:56:01;101740.0;;;-2.2222222222222223;48.9
64862;BME280;62652;42.274;-71.436;2023-02-01T00:57:00;101740.0;;;-2.2777777777777786;48.8
64862;BME280;62652;42.274;-71.436;2023-02-01T00:58:00;101740.0;;;-2.2777777777777786;49.7
64862;BME280;62652;42.274;-71.436;2023-02-01T00:59:00;101740.0;;;-2.3888888888888893;50.0
64862;BME280;62652;42.274;-71.436;2023-02-01T01:00:01;101750.0;;;-2.3888888888888893;50.1
64862;BME280;62652;42.274;-71.436;2023-02-01T01:01:03;101740.0;;;-2.2777777777777786;50.1
64862;BME280;62652;42.274;-71.436;2023-02-01T01:02:01;101740.0;;;-2.3888888888888893;49.8
64862;BME280;62652;42.274;-71.436;2023-02-01T01:03:01;101740.0;;;-2.5;50.9
64862;BME280;62652;42.274;-71.436;2023-02-01T01:04:01;101740.0;;;-2.6111111111111107;51.4
64862;BME280;62652;42.274;-71.436;2023-02-01T01:05:00;101740.0;;;-2.6111111111111107;51.0
64862;BME280;62652;42.274;-71.436;2023-02-01T01:06:03;101750.0;;;-2.6111111111111107;51.8
64862;BME280;62652;42.274;-71.436;2023-02-01T01:07:01;101750.0;;;-2.7222222222222214;51.5
64862;BME280;62652;42.274;-71.436;2023-02-01T01:08:00;101740.0;;;-2.6111111111111107;51.8
64862;BME280;62652;42.274;-71.436;2023-02-01T01:09:03;101750.0;;;-2.6111111111111107;52.2
64862;BME280;62652;42.274;-71.436;2023-02-01T01:10:01;101750.0;;;-2.7222222222222214;52.2
64862;BME280;62652;42.274;-71.436;2023-02-01T01:11:04;101750.0;;;-2.5;52.1
64862;BME280;62652;42.274;-71.436;2023-02-01T01:12:01;101750.0;;;-2.5;52.4
64862;BME280;62652;42.274;-71.436;2023-02-01T01:13:01;101750.0;;;-2.6111111111111107;52.7
64862;BME280;62652;42.274;-71.436;2023-02-01T01:14:01;101750.0;;;-2.6111111111111107;52.5
64862;BME280;62652;42.274;-71.436;2023-02-01T01:15:01;101750.0;;;-2.6111111111111107;52.8
64862;BME280;62652;42.274;-71.436;2023-02-01T01:16:01;101750.0;;;-2.7222222222222214;53.0
64862;BME280;62652;42.274;-71.436;2023-02-01T01:17:00;101760.0;;;-2.6111111111111107;53.3
64862;BME280;62652;42.274;-71.436;2023-02-01T01:18:00;101760.0;;;-2.7222222222222214;53.2
64862;BME280;62652;42.274;-71.436;2023-02-01T01:19:00;101750.0;;;-2.7222222222222214;52.2
64862;BME280;62652;42.274;-71.436;2023-02-01T01:20:00;101760.0;;;-2.6111111111111107;53.0
64862;BME280;62652;42.274;-71.436;2023-02-01T01:21:01;101770.0;;;-2.7222222222222214;53.9
64862;BME280;62652;42.274;-71.436;2023-02-01T01:22:00;101770.0;;;-2.7222222222222214;54.0
64862;BME280;62652;42.274;-71.436;2023-02-01T01:23:01;101780.0;;;-2.7222222222222214;53.5
64862;BME280;62652;42.274;-71.436;2023-02-01T01:24:01;101780.0;;;-2.5;53.4
64862;BME280;62652;42.274;-71.436;2023-02-01T01:25:01;101770.0;;;-2.6111111111111107;53.2
64862;BME280;62652;42.274;-71.436;2023-02-01T01:26:04;101770.0;;;-2.6111111111111107;52.8
64862;BME280;62652;42.274;-71.436;2023-02-01T01:27:01;101760.0;;;-2.6111111111111107;53.2
64862;BME280;62652;42.274;-71.436;2023-02-01T01:28:00;101760.0;;;-2.6111111111111107;52.7
64862;BME280;62652;42.274;-71.436;2023-02-01T01:29:00;101760.0;;;-2.7222222222222214;53.7
64862;BME280;62652;42.274;-71.436;2023-02-01T01:30:00;101760.0;;;-2.7222222222222214;53.4
64862;BME280;62652;42.274;-71.436;2023-02-01T01:31:01;101770.0;;;-2.6111111111111107;53.2
64862;BME280;62652;42.274;-71.436;2023-02-01T01:32:01;101770.0;;;-2.6111111111111107;53.7
64862;BME280;62652;42.274;-71.436;2023-02-01T01:33:00;101780.0;;;-2.7222222222222214;53.3
64862;BME280;62652;42.274;-71.436;2023-02-01T01:34:01;101780.0;;;-2.7777777777777777;54.2
64862;BME280;62652;42.274;-71.436;2023-02-01T01:35:01;101780.0;;;-2.7222222222222214;53.9
64862;BME280;62652;42.274;-71.436;2023-02-01T01:36:00;101780.0;;;-2.6111111111111107;53.2
64862;BME280;62652;42.274;-71.436;2023-02-01T01:37:00;101780.0;;;-2.7222222222222214;52.9
64862;BME280;62652;42.274;-71.436;2023-02-01T01:38:01;101780.0;;;-2.7222222222222214;53.7
64862;BME280;62652;42.274;-71.436;2023-02-01T01:39:01;101780.0;;;-2.7222222222222214;53.6
64862;BME280;62652;42.274;-71.436;2023-02-01T01:40:01;101780.0;;;-2.7222222222222214;53.0
64862;BME280;62652;42.274;-71.436;2023-02-01T01:41:01;101780.0;;;-2.7777777777777777;53.9
64862;BME280;62652;42.274;-71.436;2023-02-01T01:42:00;101780.0;;;-2.7222222222222214;54.0
64862;BME280;62652;42.274;-71.436;2023-02-01T01:43:01;101780.0;;;-2.7777777777777777;54.5
64862;BME280;62652;42.274;-71.436;2023-02-01T01:44:02;101780.0;;;-2.7777777777777777;54.4
64862;BME280;62652;42.274;-71.436;2023-02-01T01:45:06;101790.0;;;-2.8888888888888884;55.0
64862;BME280;62652;42.274;-71.436;2023-02-01T01:46:01;101780.0;;;-2.999999999999999;55.1
64862;BME280;62652;42.274;-71.436;2023-02-01T01:47:01;101790.0;;;-2.999999999999999;55.1
64862;BME280;62652;42.274;-71.436;2023-02-01T01:48:05;101790.0;;;-2.999999999999999;54.8
64862;BME280;62652;42.274;-71.436;2023-02-01T01:49:04;101790.0;;;-2.999999999999999;55.6
64862;BME280;62652;42.274;-71.436;2023-02-01T01:50:02;101790.0;;;-2.7777777777777777;54.3
64862;BME280;62652;42.274;-71.436;2023-02-01T01:51:04;101790.0;;;-2.8888888888888884;54.2
64862;BME280;62652;42.274;-71.436;2023-02-01T01:52:02;101790.0;;;-2.999999999999999;54.8
64862;BME280;62652;42.274;-71.436;2023-02-01T01:53:03;101790.0;;;-2.999999999999999;56.4
64862;BME280;62652;42.274;-71.436;2023-02-01T01:54:03;101790.0;;;-2.999999999999999;55.9
64862;BME280;62652;42.274;-71.436;2023-02-01T01:55:01;101790.0;;;-2.999999999999999;55.1
64862;BME280;62652;42.274;-71.436;2023-02-01T01:56:01;101790.0;;;-3.111111111111112;55.9
64862;BME280;62652;42.274;-71.436;2023-02-01T01:57:04;101780.0;;;-3.111111111111112;56.0
64862;BME280;62652;42.274;-71.436;2023-02-01T01:58:05;101780.0;;;-2.999999999999999;56.0
64862;BME280;62652;42.274;-71.436;2023-02-01T01:59:01;101780.0;;;-3.111111111111112;56.1
64862;BME280;62652;42.274;-71.436;2023-02-01T02:00:04;101770.0;;;-2.999999999999999;55.4
64862;BME280;62652;42.274;-71.436;2023-02-01T02:01:01;101770.0;;;-2.999999999999999;54.6
64862;BME280;62652;42.274;-71.436;2023-02-01T02:02:02;101770.0;;;-2.999999999999999;54.0
64862;BME280;62652;42.274;-71.436;2023-02-01T02:03:11;101780.0;;;-2.999999999999999;54.2
64862;BME280;62652;42.274;-71.436;2023-02-01T02:04:01;101780.0;;;-2.999999999999999;53.9
64862;BME280;62652;42.274;-71.436;2023-02-01T02:05:01;101780.0;;;-3.2222222222222228;54.0
64862;BME280;62652;42.274;-71.436;2023-02-01T02:06:02;101780.0;;;-3.2222222222222228;55.0
64862;BME280;62652;42.274;-71.436;2023-02-01T02:07:04;101780.0;;;-3.2222222222222228;55.8
64862;BME280;62652;42.274;-71.436;2023-02-01T02:08:01;101790.0;;;-3.277777777777777;55.9
64862;BME280;62652;42.274;-71.436;2023-02-01T02:09:01;101790.0;;;-3.277777777777777;56.1
64862;BME280;62652;42.274;-71.436;2023-02-01T02:10:03;101790.0;;;-3.3888888888888897;55.6
64862;BME280;62652;42.274;-71.436;2023-02-01T02:11:00;101800.0;;;-3.277777777777777;55.6
64862;BME280;62652;42.274;-71.436;2023-02-01T02:12:00;101800.0;;;-3.277777777777777;54.3
64862;BME280;62652;42.274;-71.436;2023-02-01T02:13:01;101790.0;;;-3.3888888888888897;54.9
64862;BME280;62652;42.274;-71.436;2023-02-01T02:14:01;101800.0;;;-3.3888888888888897;54.5
64862;BME280;62652;42.274;-71.436;2023-02-01T02:15:01;101800.0;;;-3.3888888888888897;53.5
64862;BME280;62652;42.274;-71.436;2023-02-01T02:16:16;101810.0;;;-3.3888888888888897;53.7
64862;BME280;62652;42.274;-71.436;2023-02-01T02:17:07;101810.0;;;-3.3888888888888897;53.8
64862;BME280;62652;42.274;-71.436;2023-02-01T02:18:06;101810.0;;;-3.2222222222222228;53.2
64862;BME280;62652;42.274;-71.436;2023-02-01T02:19:13;101820.0;;;-3.277777777777777;53.2
64862;BME280;62652;42.274;-71.436;2023-02-01T02:21:10;101820.0;;;-3.277777777777777;53.6
64862;BME280;62652;42.274;-71.436;2023-02-01T02:22:17;101810.0;;;-3.277777777777777;52.0
64862;BME280;62652;42.274;-71.436;2023-02-01T02:23:17;101820.0;;;-3.277777777777777;51.5
64862;BME280;62652;42.274;-71.436;2023-02-01T02:26:14;101820.0;;;-3.277777777777777;52.4
64862;BME280;62652;42.274;-71.436;2023-02-01T02:27:05;101820.0;;;-3.3888888888888897;51.2
64862;BME280;62652;42.274;-71.436;2023-02-01T02:28:11;101830.0;;;-3.5000000000000004;51.6
64862;BME280;62652;42.274;-71.436;2023-02-01T02:32:16;101830.0;;;-3.611111111111111;53.1
64862;BME280;62652;42.274;-71.436;2023-02-01T02:34:08;101820.0;;;-3.5000000000000004;52.8
64862;BME280;62652;42.274;-71.436;2023-02-01T02:35:04;101830.0;;;-3.5000000000000004;52.5
64862;BME280;62652;42.274;-71.436;2023-02-01T02:36:05;101830.0;;;-3.277777777777777;50.4
64862;BME280;62652;42.274;-71.436;2023-02-01T02:37:04;101840.0;;;-3.277777777777777;49.8
64862;BME280;62652;42.274;-71.436;2023-02-01T02:38:08;101840.0;;;-3.277777777777777;49.8
64862;BME280;62652;42.274;-71.436;2023-02-01T02:39:06;101840.0;;;-3.5000000000000004;49.5
64862;BME280;62652;42.274;-71.436;2023-02-01T02:40:04;101840.0;;;-3.5000000000000004;50.1
64862;BME280;62652;42.274;-71.436;2023-02-01T02:41:08;101840.0;;;-3.5000000000000004;49.3
64862;BME280;62652;42.274;-71.436;2023-02-01T02:42:06;101840.0;;;-3.5000000000000004;49.3
64862;BME280;62652;42.274;-71.436;2023-02-01T02:43:05;101840.0;;;-3.5000000000000004;49.7
64862;BME280;62652;42.274;-71.436;2023-02-01T02:44:05;101850.0;;;-3.611111111111111;50.2
64862;BME280;62652;42.274;-71.436;2023-02-01T02:45:04;101850.0;;;-3.611111111111111;49.6
64862;BME280;62652;42.274;-71.436;2023-02-01T02:46:04;101860.0;;;-3.5000000000000004;49.6
64862;BME280;62652;42.274;-71.436;2023-02-01T02:47:08;101850.0;;;-3.611111111111111;49.1
64862;BME280;62652;42.274;-71.436;2023-02-01T02:48:07;101850.0;;;-3.611111111111111;50.3
64862;BME280;62652;42.274;-71.436;2023-02-01T02:49:05;101860.0;;;-3.7222222222222223;50.6
64862;BME280;62652;42.274;-71.436;2023-02-01T02:50:13;101850.0;;;-3.7222222222222223;50.1
64862;BME280;62652;42.274;-71.436;2023-02-01T02:51:05;101850.0;;;-3.611111111111111;49.3
64862;BME280;62652;42.274;-71.436;2023-02-01T02:52:06;101840.0;;;-3.5000000000000004;48.8
64862;BME280;62652;42.274;-71.436;2023-02-01T02:53:06;101840.0;;;-3.611111111111111;48.5
64862;BME280;62652;42.274;-71.436;2023-02-01T02:54:05;101840.0;;;-3.611111111111111;48.5
64862;BME280;62652;42.274;-71.436;2023-02-01T02:55:01;101840.0;;;-3.7222222222222223;48.7
64862;BME280;62652;42.274;-71.436;2023-02-01T02:56:02;101850.0;;;-3.7222222222222223;48.5
64862;BME280;62652;42.274;-71.436;2023-02-01T02:57:03;101850.0;;;-3.7777777777777777;48.5
64862;BME280;62652;42.274;-71.436;2023-02-01T02:58:03;101840.0;;;-3.7777777777777777;48.3
64862;BME280;62652;42.274;-71.436;2023-02-01T02:59:02;101850.0;;;-3.7222222222222223;48.3
64862;BME280;62652;42.274;-71.436;2023-02-01T03:00:03;101840.0;;;-3.7777777777777777;49.3
64862;BME280;62652;42.274;-71.436;2023-02-01T03:01:02;101830.0;;;-3.7777777777777777;48.6
64862;BME280;62652;42.274;-71.436;2023-02-01T03:02:01;101830.0;;;-3.888888888888889;48.9
64862;BME280;62652;42.274;-71.436;2023-02-01T03:03:01;101830.0;;;-3.7777777777777777;48.5
64862;BME280;62652;42.274;-71.436;2023-02-01T03:04:00;101840.0;;;-3.7777777777777777;48.7
64862;BME280;62652;42.274;-71.436;2023-02-01T03:05:00;101840.0;;;-3.888888888888889;49.0
64862;BME280;62652;42.274;-71.436;2023-02-01T03:06:01;101840.0;;;-3.888888888888889;48.7
64862;BME280;62652;42.274;-71.436;2023-02-01T03:07:12;101830.0;;;-3.7777777777777777;48.0
64862;BME280;62652;42.274;-71.436;2023-02-01T03:08:03;101840.0;;;-3.7777777777777777;48.5
64862;BME280;62652;42.274;-71.436;2023-02-01T03:09:04;101840.0;;;-3.7777777777777777;48.1
64862;BME280;62652;42.274;-71.436;2023-02-01T03:10:03;101840.0;;;-3.888888888888889;47.7
64862;BME280;62652;42.274;-71.436;2023-02-01T03:11:04;101840.0;;;-3.7777777777777777;47.9
64862;BME280;62652;42.274;-71.436;2023-02-01T03:12:06;101840.0;;;-3.888888888888889;47.4
64862;BME280;62652;42.274;-71.436;2023-02-01T03:13:04;101840.0;;;-3.888888888888889;48.2
64862;BME280;62652;42.274;-71.436;2023-02-01T03:14:02;101840.0;;;-3.7777777777777777;47.9
64862;BME280;62652;42.274;-71.436;2023-02-01T03:15:07;101840.0;;;-3.7777777777777777;47.7
64862;BME280;62652;42.274;-71.436;2023-02-01T03:16:06;101850.0;;;-3.7777777777777777;48.0
64862;BME280;62652;42.274;-71.436;2023-02-01T03:17:04;101860.0;;;-3.888888888888889;48.7
64862;BME280;62652;42.274;-71.436;2023-02-01T03:18:03;101870.0;;;-4.0;48.5
64862;BME280;62652;42.274;-71.436;2023-02-01T03:19:03;101880.0;;;-3.888888888888889;48.7
64862;BME280;62652;42.274;-71.436;2023-02-01T03:20:02;101870.0;;;-4.0;49.2
64862;BME280;62652;42.274;-71.436;2023-02-01T03:21:07;101860.0;;;-4.0;48.6
64862;BME280;62652;42.274;-71.436;2023-02-01T03:22:03;101860.0;;;-4.111111111111111;48.4
64862;BME280;62652;42.274;-71.436;2023-02-01T03:23:02;101860.0;;;-4.111111111111111;48.8
64862;BME280;62652;42.274;-71.436;2023-02-01T03:24:04;101850.0;;;-4.111111111111111;49.5
64862;BME280;62652;42.274;-71.436;2023-02-01T03:25:04;101840.0;;;-4.111111111111111;50.0
64862;BME280;62652;42.274;-71.436;2023-02-01T03:26:01;101830.0;;;-4.111111111111111;49.6
64862;BME280;62652;42.274;-71.436;2023-02-01T03:27:05;101830.0;;;-4.111111111111111;49.3
64862;BME280;62652;42.274;-71.436;2023-02-01T03:28:03;101830.0;;;-4.111111111111111;50.5
64862;BME280;62652;42.274;-71.436;2023-02-01T03:29:05;101840.0;;;-4.111111111111111;50.1
64862;BME280;62652;42.274;-71.436;2023-02-01T03:30:05;101840.0;;;-4.0;50.4
64862;BME280;62652;42.274;-71.436;2023-02-01T03:31:01;101830.0;;;-4.0;49.7
64862;BME280;62652;42.274;-71.436;2023-02-01T03:32:01;101840.0;;;-4.111111111111111;49.2
64862;BME280;62652;42.274;-71.436;2023-02-01T03:33:05;101840.0;;;-4.111111111111111;49.3
64862;BME280;62652;42.274;-71.436;2023-02-01T03:34:01;101840.0;;;-4.222222222222223;49.9
64862;BME280;62652;42.274;-71.436;2023-02-01T03:35:00;101840.0;;;-4.111111111111111;49.7
64862;BME280;62652;42.274;-71.436;2023-02-01T03:36:08;101840.0;;;-4.222222222222223;49.5
64862;BME280;62652;42.274;-71.436;2023-02-01T03:37:03;101830.0;;;-4.222222222222223;50.8
64862;BME280;62652;42.274;-71.436;2023-02-01T03:38:05;101840.0;;;-4.111111111111111;50.6
64862;BME280;62652;42.274;-71.436;2023-02-01T03:39:04;101840.0;;;-4.222222222222223;51.2
64862;BME280;62652;42.274;-71.436;2023-02-01T03:40:06;101830.0;;;-4.222222222222223;51.1
64862;BME280;62652;42.274;-71.436;2023-02-01T03:41:07;101830.0;;;-4.222222222222223;51.3
64862;BME280;62652;42.274;-71.436;2023-02-01T03:42:04;101830.0;;;-4.111111111111111;50.5
64862;BME280;62652;42.274;-71.436;2023-02-01T03:43:03;101830.0;;;-4.222222222222223;50.3
64862;BME280;62652;42.274;-71.436;2023-02-01T03:44:06;101820.0;;;-4.111111111111111;50.1
64862;BME280;62652;42.274;-71.436;2023-02-01T03:45:06;101820.0;;;-4.111111111111111;49.8
64862;BME280;62652;42.274;-71.436;2023-02-01T03:46:04;101820.0;;;-4.111111111111111;49.8
64862;BME280;62652;42.274;-71.436;2023-02-01T03:47:04;101820.0;;;-4.111111111111111;48.9
64862;BME280;62652;42.274;-71.436;2023-02-01T03:48:01;101820.0;;;-4.111111111111111;49.3
64862;BME280;62652;42.274;-71.436;2023-02-01T03:49:05;101810.0;;;-4.222222222222223;49.4
64862;BME280;62652;42.274;-71.436;2023-02-01T03:50:04;101820.0;;;-4.222222222222223;49.5
64862;BME280;62652;42.274;-71.436;2023-02-01T03:51:03;101820.0;;;-4.222222222222223;49.3
64862;BME280;62652;42.274;-71.436;2023-02-01T03:52:01;101830.0;;;-4.222222222222223;49.5
64862;BME280;62652;42.274;-71.436;2023-02-01T03:53:04;101830.0;;;-4.222222222222223;50.3
64862;BME280;62652;42.274;-71.436;2023-02-01T03:54:02;101830.0;;;-4.222222222222223;50.3
64862;BME280;62652;42.274;-71.436;2023-02-01T03:55:01;101820.0;;;-4.222222222222223;50.4
64862;BME280;62652;42.274;-71.436;2023-02-01T03:56:01;101820.0;;;-4.277777777777778;50.1
64862;BME280;62652;42.274;-71.436;2023-02-01T03:57:05;101820.0;;;-4.222222222222223;49.7
64862;BME280;62652;42.274;-71.436;2023-02-01T03:58:06;101820.0;;;-4.222222222222223;49.1
64862;BME280;62652;42.274;-71.436;2023-02-01T03:59:00;101820.0;;;-4.277777777777778;49.0
64862;BME280;62652;42.274;-71.436;2023-02-01T04:00:06;101820.0;;;-4.222222222222223;47.9
64862;BME280;62652;42.274;-71.436;2023-02-01T04:01:00;101820.0;;;-4.222222222222223;47.5
64862;BME280;62652;42.274;-71.436;2023-02-01T04:02:01;101830.0;;;-4.111111111111111;48.3
64862;BME280;62652;42.274;-71.436;2023-02-01T04:03:02;101820.0;;;-4.222222222222223;48.0
64862;BME280;62652;42.274;-71.436;2023-02-01T04:04:00;101820.0;;;-4.222222222222223;48.4
64862;BME280;62652;42.274;-71.436;2023-02-01T04:05:01;101820.0;;;-4.277777777777778;48.4
64862;BME280;62652;42.274;-71.436;2023-02-01T04:06:00;101810.0;;;-4.388888888888888;49.9
64862;BME280;62652;42.274;-71.436;2023-02-01T04:07:01;101820.0;;;-4.388888888888888;50.0
64862;BME280;62652;42.274;-71.436;2023-02-01T04:08:01;101830.0;;;-4.277777777777778;49.8
64862;BME280;62652;42.274;-71.436;2023-02-01T04:09:01;101830.0;;;-4.277777777777778;49.5
64862;BME280;62652;42.274;-71.436;2023-02-01T04:10:01;101830.0;;;-4.277777777777778;50.8
64862;BME280;62652;42.274;-71.436;2023-02-01T04:11:01;101840.0;;;-4.277777777777778;51.4
64862;BME280;62652;42.274;-71.436;2023-02-01T04:12:01;101830.0;;;-4.277777777777778;50.2
64862;BME280;62652;42.274;-71.436;2023-02-01T04:13:01;101840.0;;;-4.277777777777778;50.1
64862;BME280;62652;42.274;-71.436;2023-02-01T04:14:01;101840.0;;;-4.277777777777778;49.8
64862;BME280;62652;42.274;-71.436;2023-02-01T04:15:01;101830.0;;;-4.277777777777778;49.1
64862;BME280;62652;42.274;-71.436;2023-02-01T04:16:00;101830.0;;;-4.222222222222223;49.4
64862;BME280;62652;42.274;-71.436;2023-02-01T04:17:00;101840.0;;;-4.222222222222223;48.6
64862;BME280;62652;42.274;-71.436;2023-02-01T04:18:01;101840.0;;;-4.222222222222223;48.0
64862;BME280;62652;42.274;-71.436;2023-02-01T04:19:00;101840.0;;;-4.222222222222223;47.9
64862;BME280;62652;42.274;-71.436;2023-02-01T04:20:02;101840.0;;;-4.277777777777778;48.3
64862;BME280;62652;42.274;-71.436;2023-02-01T04:21:00;101830.0;;;-4.222222222222223;49.1
64862;BME280;62652;42.274;-71.436;2023-02-01T04:22:00;101830.0;;;-4.222222222222223;49.3
64862;BME280;62652;42.274;-71.436;2023-02-01T04:23:00;101830.0;;;-4.222222222222223;49.1
64862;BME280;62652;42.274;-71.436;2023-02-01T04:24:01;101830.0;;;-4.222222222222223;50.0
64862;BME280;62652;42.274;-71.436;2023-02-01T04:25:01;101830.0;;;-4.277777777777778;50.3
64862;BME280;62652;42.274;-71.436;2023-02-01T04:26:01;101840.0;;;-4.277777777777778;50.8
64862;BME280;62652;42.274;-71.436;2023-02-01T04:27:00;101830.0;;;-4.222222222222223;50.9
64862;BME280;62652;42.274;-71.436;2023-02-01T04:28:01;101820.0;;;-4.277777777777778;50.9
64862;BME280;62652;42.274;-71.436;2023-02-01T04:29:00;101820.0;;;-4.277777777777778;51.7
64862;BME280;62652;42.274;-71.436;2023-02-01T04:30:00;101820.0;;;-4.277777777777778;52.5
64862;BME280;62652;42.274;-71.436;2023-02-01T04:31:01;101820.0;;;-4.277777777777778;51.2
64862;BME280;62652;42.274;-71.436;2023-02-01T04:32:01;101830.0;;;-4.388888888888888;51.2
64862;BME280;62652;42.274;-71.436;2023-02-01T04:33:00;101830.0;;;-4.388888888888888;50.5
64862;BME280;62652;42.274;-71.436;2023-02-01T04:34:01;101830.0;;;-4.388888888888888;49.9